Time;durP1;ratioP1;P1;durP2;ratioP2;P2;SDS_P1;SDS_P2;PMS_P1;PMS_P2;Temp;Humidity;BMP_temperature;BMP_pressure;BME280_temperature;BME280_humidity;BME280_pressure;Samples;Min_cycle;Max_cycle;Signal;HPM_P1;HPM_P2
2021/10/05 00:00:02;;;;;;;20.70;8.57;;;;;;;9.54;100.00;93574.78;5072580;28;20236;-78
2021/10/05 00:02:28;;;;;;;14.23;7.70;;;;;;;9.48;100.00;93571.16;5072695;28;20289;-77
2021/10/05 00:04:55;;;;;;;16.20;7.77;;;;;;;9.48;100.00;93557.34;5072797;28;20202;-77
2021/10/05 00:07:21;;;;;;;15.60;7.03;;;;;;;9.51;100.00;93556.91;5072721;28;20257;-77
2021/10/05 00:09:48;;;;;;;16.37;7.63;;;;;;;9.51;100.00;93552.53;5072639;28;20199;-77
2021/10/05 00:12:16;;;;;;;18.63;8.60;;;;;;;9.51;100.00;93552.53;5073944;28;20207;-78
2021/10/05 00:14:45;;;;;;;14.77;7.10;;;;;;;9.50;100.00;93553.53;5076505;28;20203;-78
2021/10/05 00:17:11;;;;;;;17.20;8.27;;;;;;;9.52;100.00;93550.72;5060446;28;20203;-78
2021/10/05 00:19:38;;;;;;;15.20;7.97;;;;;;;9.52;100.00;93543.69;5058820;28;20203;-77
2021/10/05 00:22:05;;;;;;;18.20;8.23;;;;;;;9.52;100.00;93546.31;5076194;28;20234;-77
2021/10/05 00:24:32;;;;;;;19.13;8.17;;;;;;;9.51;100.00;93536.91;5090474;28;20273;-77
2021/10/05 00:26:58;;;;;;;17.10;7.57;;;;;;;9.53;100.00;93541.91;5096576;28;20194;-77
2021/10/05 00:29:26;;;;;;;16.13;7.20;;;;;;;9.48;100.00;93532.09;5096399;28;20214;-77
2021/10/05 00:31:54;;;;;;;13.40;6.57;;;;;;;9.44;100.00;93525.66;5096737;28;20198;-78
2021/10/05 00:34:26;;;;;;;17.97;7.27;;;;;;;9.44;100.00;93528.25;5096703;28;20202;-77
2021/10/05 00:36:53;;;;;;;17.00;7.30;;;;;;;9.39;100.00;93521.06;5096566;28;20198;-78
2021/10/05 00:39:21;;;;;;;19.70;6.97;;;;;;;9.36;100.00;93518.84;5096441;28;20194;-77
2021/10/05 00:41:47;;;;;;;17.80;8.60;;;;;;;9.40;100.00;93519.25;5095410;28;20478;-77
2021/10/05 00:44:29;;;;;;;14.87;6.50;;;;;;;9.42;100.00;93518.03;5096593;28;20202;-77
2021/10/05 00:46:55;;;;;;;16.10;7.27;;;;;;;9.44;100.00;93505.63;5096409;28;20202;-77
2021/10/05 00:49:22;;;;;;;20.83;7.10;;;;;;;9.43;100.00;93505.81;5096343;28;20205;-77
2021/10/05 00:51:48;;;;;;;16.00;7.40;;;;;;;9.43;100.00;93505.81;5096106;28;20247;-77
2021/10/05 00:54:15;;;;;;;21.67;7.63;;;;;;;9.44;100.00;93491.78;5096033;28;20202;-77
2021/10/05 00:56:41;;;;;;;15.40;6.20;;;;;;;9.46;100.00;93489.78;5096274;28;20587;-77
2021/10/05 00:59:10;;;;;;;15.30;6.10;;;;;;;9.47;100.00;93490.59;5096192;28;20198;-77
2021/10/05 01:01:37;;;;;;;16.67;7.43;;;;;;;9.45;100.00;93493.38;5095932;28;20287;-77
2021/10/05 01:04:04;;;;;;;17.77;8.00;;;;;;;9.49;100.00;93491.97;5095980;28;20255;-77
2021/10/05 01:06:31;;;;;;;14.77;6.87;;;;;;;9.50;100.00;93488.38;5095869;28;20194;-77
2021/10/05 01:08:57;;;;;;;17.67;7.50;;;;;;;9.47;100.00;93475.75;5095721;28;20206;-77
2021/10/05 01:11:26;;;;;;;14.67;6.50;;;;;;;9.42;100.00;93480.75;5095789;28;20209;-77
2021/10/05 01:13:53;;;;;;;14.60;7.10;;;;;;;9.40;100.00;93474.94;5095909;28;20611;-77
2021/10/05 01:16:20;;;;;;;23.27;9.37;;;;;;;9.35;100.00;93485.19;5095759;28;20533;-77
2021/10/05 01:18:48;;;;;;;17.10;8.20;;;;;;;9.36;100.00;93490.19;5095735;28;20559;-77
2021/10/05 01:21:16;;;;;;;18.30;8.33;;;;;;;9.41;100.00;93492.19;5095179;28;20631;-77
2021/10/05 01:23:42;;;;;;;17.67;8.13;;;;;;;9.51;100.00;93502.19;5094822;28;20252;-77
2021/10/05 01:26:09;;;;;;;15.97;7.53;;;;;;;9.55;100.00;93499.00;5095611;28;20252;-76
2021/10/05 01:28:35;;;;;;;20.63;9.10;;;;;;;9.60;100.00;93496.59;5095544;28;20587;-76
2021/10/05 01:31:01;;;;;;;19.87;8.77;;;;;;;9.65;100.00;93498.59;5095355;28;20664;-77
2021/10/05 01:33:30;;;;;;;17.90;8.57;;;;;;;9.66;100.00;93488.97;5095221;28;20206;-77
2021/10/05 01:35:57;;;;;;;18.13;7.97;;;;;;;9.70;100.00;93484.97;5095141;28;20194;-77
2021/10/05 01:38:25;;;;;;;23.23;9.27;;;;;;;9.71;100.00;93484.78;5095173;28;20741;-77
2021/10/05 01:40:52;;;;;;;18.53;8.00;;;;;;;9.73;100.00;93485.34;5095217;28;20230;-77
2021/10/05 01:43:18;;;;;;;18.10;9.50;;;;;;;9.70;100.00;93477.16;5095080;28;20561;-77
2021/10/05 01:45:45;;;;;;;19.90;9.57;;;;;;;9.72;100.00;93465.50;5095158;28;20220;-78
2021/10/05 01:48:11;;;;;;;17.00;8.00;;;;;;;9.72;100.00;93462.09;5095083;28;20204;-76
2021/10/05 01:50:41;;;;;;;19.57;9.10;;;;;;;9.66;100.00;93462.91;5094841;28;20202;-77
2021/10/05 01:53:07;;;;;;;16.13;8.00;;;;;;;9.64;100.00;93460.50;5095134;28;20294;-77
2021/10/05 01:55:35;;;;;;;22.70;9.83;;;;;;;9.58;100.00;93451.69;5095105;28;20198;-77
2021/10/05 01:58:02;;;;;;;24.33;10.30;;;;;;;9.56;100.00;93452.88;5094909;28;20206;-78
2021/10/05 02:00:28;;;;;;;25.70;10.43;;;;;;;9.53;100.00;93448.88;5094817;28;20209;-77
2021/10/05 02:02:55;;;;;;;23.73;10.43;;;;;;;9.53;100.00;93437.69;5094661;28;20206;-78
2021/10/05 02:05:21;;;;;;;26.67;11.13;;;;;;;9.44;100.00;93439.66;5094654;28;20671;-77
2021/10/05 02:07:48;;;;;;;24.60;10.70;;;;;;;9.47;100.00;93443.69;5094766;28;20236;-78
2021/10/05 02:10:14;;;;;;;27.53;10.40;;;;;;;9.50;100.00;93438.88;5094509;28;20194;-77
2021/10/05 02:12:42;;;;;;;26.00;11.07;;;;;;;9.50;100.00;93436.25;5094679;28;20603;-78
2021/10/05 02:15:09;;;;;;;27.47;10.47;;;;;;;9.42;100.00;93439.88;5094485;28;20209;-78
2021/10/05 02:17:36;;;;;;;26.57;11.20;;;;;;;9.43;100.00;93441.47;5094378;28;20198;-78
2021/10/05 02:20:03;;;;;;;22.70;10.13;;;;;;;9.43;100.00;93443.28;5094637;28;20194;-77
2021/10/05 02:22:31;;;;;;;26.03;10.77;;;;;;;9.42;100.00;93436.47;5094036;28;20760;-77
2021/10/05 02:24:57;;;;;;;23.27;11.00;;;;;;;9.43;100.00;93433.66;5094271;28;20683;-77
2021/10/05 02:27:23;;;;;;;25.60;11.13;;;;;;;9.43;100.00;93435.47;5088213;28;20195;-77
2021/10/05 02:29:53;;;;;;;22.07;10.07;;;;;;;9.47;100.00;93443.69;5074053;28;20202;-77
2021/10/05 02:32:19;;;;;;;24.77;10.20;;;;;;;9.45;100.00;93443.88;5073775;28;20195;-77
2021/10/05 02:34:46;;;;;;;20.70;9.73;;;;;;;9.45;100.00;93425.66;5074015;28;20199;-77
2021/10/05 02:37:13;;;;;;;23.93;9.40;;;;;;;9.43;100.00;93425.84;5073769;28;20592;-77
2021/10/05 02:39:40;;;;;;;25.93;10.13;;;;;;;9.49;100.00;93426.81;5073766;28;20199;-77
2021/10/05 02:42:09;;;;;;;21.90;9.93;;;;;;;9.46;100.00;93422.03;5073628;28;20715;-77
2021/10/05 02:44:36;;;;;;;26.23;10.73;;;;;;;9.43;100.00;93427.66;5073671;28;20226;-77
2021/10/05 02:47:09;;;;;;;26.13;9.87;;;;;;;9.38;100.00;93419.66;5073722;28;20229;-78
2021/10/05 02:49:43;;;;;;;21.40;9.60;;;;;;;9.36;100.00;93413.81;5073560;28;20668;-78
2021/10/05 02:52:10;;;;;;;24.40;10.47;;;;;;;9.35;100.00;93407.81;5073625;28;20560;-77
2021/10/05 02:54:36;;;;;;;22.77;9.30;;;;;;;9.32;100.00;93405.59;5073553;28;20210;-77
2021/10/05 02:57:03;;;;;;;24.57;10.03;;;;;;;9.35;100.00;93402.59;5073530;28;20203;-76
2021/10/05 02:59:29;;;;;;;20.60;8.77;;;;;;;9.35;100.00;93397.41;5073166;28;20199;-77
2021/10/05 03:01:56;;;;;;;20.33;8.33;;;;;;;9.40;100.00;93396.78;5073666;28;20238;-77
2021/10/05 03:04:24;;;;;;;21.97;8.00;;;;;;;9.40;100.00;93386.38;5073365;28;20195;-77
2021/10/05 03:06:52;;;;;;;15.80;6.60;;;;;;;9.40;100.00;93388.97;5073413;28;20202;-77
2021/10/05 03:09:24;;;;;;;15.13;6.67;;;;;;;9.37;100.00;93387.56;5073232;28;20225;-77
2021/10/05 03:11:51;;;;;;;13.03;5.70;;;;;;;9.39;100.00;93385.56;5073184;28;20207;-77
2021/10/05 03:14:17;;;;;;;15.93;6.60;;;;;;;9.35;100.00;93386.19;5073417;28;20244;-77
2021/10/05 03:16:47;;;;;;;14.47;6.63;;;;;;;9.40;100.00;93391.59;5073352;28;20211;-77
2021/10/05 03:19:14;;;;;;;18.77;7.13;;;;;;;9.35;100.00;93388.78;5073287;28;20205;-77
2021/10/05 03:21:42;;;;;;;16.27;7.03;;;;;;;9.37;100.00;93391.97;5072799;28;20238;-77
2021/10/05 03:24:09;;;;;;;19.83;7.93;;;;;;;9.29;100.00;93392.19;5072946;28;20694;-77
2021/10/05 03:26:35;;;;;;;25.37;9.30;;;;;;;9.29;100.00;93394.78;5073232;28;20202;-77
2021/10/05 03:29:02;;;;;;;24.67;9.93;;;;;;;9.28;100.00;93404.41;5073325;28;20206;-77
2021/10/05 03:31:29;;;;;;;27.43;10.50;;;;;;;9.28;100.00;93414.03;5073000;28;20202;-77
2021/10/05 03:33:55;;;;;;;30.13;10.43;;;;;;;9.19;100.00;93421.25;5073067;28;20209;-77
2021/10/05 03:36:22;;;;;;;34.33;10.53;;;;;;;9.19;100.00;93421.25;5073047;28;20198;-77
2021/10/05 03:38:50;;;;;;;34.10;11.63;;;;;;;9.19;100.00;93418.63;5072824;28;20252;-77
2021/10/05 03:41:17;;;;;;;28.60;9.97;;;;;;;9.21;100.00;93416.66;5072961;28;20230;-77
2021/10/05 03:43:43;;;;;;;30.90;10.13;;;;;;;9.21;100.00;93404.44;5072802;28;20198;-77
2021/10/05 03:46:10;;;;;;;25.30;8.13;;;;;;;9.26;100.00;93396.00;5072637;28;20202;-77
2021/10/05 03:48:36;;;;;;;20.30;8.63;;;;;;;9.20;100.00;93397.59;5072521;28;20203;-76
2021/10/05 03:51:03;;;;;;;24.80;7.83;;;;;;;9.19;100.00;93392.59;5072874;28;20205;-77
2021/10/05 03:53:30;;;;;;;21.57;7.63;;;;;;;9.20;100.00;93384.56;5072675;28;20678;-77
2021/10/05 03:55:59;;;;;;;17.13;6.60;;;;;;;9.18;100.00;93389.19;5072923;28;20221;-77
2021/10/05 03:58:26;;;;;;;17.70;6.33;;;;;;;9.18;100.00;93394.41;5072913;28;20202;-77
2021/10/05 04:00:53;;;;;;;17.07;5.93;;;;;;;9.21;100.00;93391.41;5072780;28;20209;-77
2021/10/05 04:03:22;;;;;;;14.63;5.63;;;;;;;9.21;100.00;93388.78;5072521;28;20613;-77
2021/10/05 04:05:49;;;;;;;15.00;5.83;;;;;;;9.26;100.00;93377.78;5072573;28;20203;-76
2021/10/05 04:08:16;;;;;;;11.73;5.07;;;;;;;9.24;100.00;93380.59;5072562;28;20203;-77
2021/10/05 04:10:46;;;;;;;7.87;3.43;;;;;;;9.25;100.00;93382.16;5072755;28;20194;-77
2021/10/05 04:13:13;;;;;;;8.70;4.30;;;;;;;9.23;100.00;93378.97;5072714;28;20248;-76
2021/10/05 04:15:40;;;;;;;8.90;3.67;;;;;;;9.23;100.00;93392.00;5072515;28;20562;-77
2021/10/05 04:18:06;;;;;;;9.27;4.20;;;;;;;9.22;100.00;93384.38;5072548;28;20202;-77
2021/10/05 04:20:33;;;;;;;9.83;4.23;;;;;;;9.23;100.00;93389.38;5072455;28;20252;-77
2021/10/05 04:22:59;;;;;;;10.10;4.00;;;;;;;9.19;100.00;93387.38;5072225;28;20276;-76
2021/10/05 04:25:26;;;;;;;11.27;4.50;;;;;;;9.16;100.00;93390.38;5071950;28;20565;-77
2021/10/05 04:27:53;;;;;;;13.33;4.97;;;;;;;9.12;100.00;93395.19;5072578;28;20199;-77
2021/10/05 04:30:21;;;;;;;15.27;5.60;;;;;;;9.13;100.00;93396.81;5072456;28;20564;-77
2021/10/05 04:32:47;;;;;;;14.90;5.90;;;;;;;9.05;100.00;93394.41;5072332;28;20199;-77
2021/10/05 04:35:14;;;;;;;12.60;5.50;;;;;;;9.08;100.00;93394.81;5072309;28;20202;-77
2021/10/05 04:37:40;;;;;;;13.23;5.77;;;;;;;9.09;100.00;93406.00;5072557;28;20604;-76
2021/10/05 04:40:08;;;;;;;13.83;6.10;;;;;;;9.06;100.00;93401.22;5072511;28;20462;-77
2021/10/05 04:42:36;;;;;;;11.77;5.37;;;;;;;9.01;100.00;93385.38;5072141;28;20704;-77
2021/10/05 04:45:03;;;;;;;12.57;5.53;;;;;;;9.05;100.00;93368.38;5072321;28;20199;-77
2021/10/05 04:47:30;;;;;;;13.83;6.33;;;;;;;9.03;100.00;93360.75;5072128;28;20230;-77
2021/10/05 04:49:57;;;;;;;15.77;6.53;;;;;;;9.08;100.00;93371.38;5072332;28;20209;-77
2021/10/05 04:52:23;;;;;;;14.97;6.23;;;;;;;9.11;100.00;93378.00;5072139;28;20688;-76
2021/10/05 04:54:50;;;;;;;17.10;7.10;;;;;;;9.00;100.00;93386.41;5072269;28;20199;-77
2021/10/05 04:57:17;;;;;;;18.47;7.53;;;;;;;9.03;100.00;93378.97;5072109;28;20198;-77
2021/10/05 04:59:43;;;;;;;17.13;7.40;;;;;;;9.01;100.00;93377.56;5074123;28;20202;-76
2021/10/05 05:02:10;;;;;;;20.10;7.50;;;;;;;9.01;100.00;93373.19;5075517;28;20226;-76
2021/10/05 05:04:37;;;;;;;15.10;7.47;;;;;;;9.02;100.00;93353.16;5075867;28;20199;-76
2021/10/05 05:07:04;;;;;;;16.77;7.00;;;;;;;9.06;100.00;93355.16;5075492;28;20206;-77
2021/10/05 05:09:31;;;;;;;19.07;8.03;;;;;;;9.07;100.00;93351.53;5075725;28;20202;-76
2021/10/05 05:11:57;;;;;;;17.63;7.23;;;;;;;9.07;100.00;93353.34;5075640;28;20206;-76
2021/10/05 05:14:24;;;;;;;16.40;7.07;;;;;;;9.07;100.00;93354.13;5075548;28;20210;-77
2021/10/05 05:16:51;;;;;;;14.57;6.07;;;;;;;9.09;100.00;93356.53;5075264;28;20203;-77
2021/10/05 05:19:17;;;;;;;16.20;6.87;;;;;;;9.12;100.00;93353.53;5075392;28;20198;-77
2021/10/05 05:21:45;;;;;;;16.13;6.43;;;;;;;9.12;100.00;93350.13;5075035;28;20712;-76
2021/10/05 05:24:12;;;;;;;17.63;7.40;;;;;;;9.10;100.00;93354.75;5075462;28;20198;-77
2021/10/05 05:26:38;;;;;;;17.17;7.17;;;;;;;9.07;100.00;93358.53;5075316;28;20217;-76
2021/10/05 05:29:05;;;;;;;22.97;8.20;;;;;;;9.08;100.00;93355.75;5075277;28;20202;-76
2021/10/05 05:31:32;;;;;;;19.90;8.03;;;;;;;9.06;100.00;93352.53;5075060;28;20577;-77
2021/10/05 05:33:58;;;;;;;22.87;8.30;;;;;;;9.06;100.00;93352.53;5075309;28;20203;-77
2021/10/05 05:36:25;;;;;;;24.23;8.87;;;;;;;9.06;100.00;93364.78;5075194;28;20195;-77
2021/10/05 05:38:52;;;;;;;25.47;8.73;;;;;;;9.09;100.00;93369.56;5075194;28;20206;-76
2021/10/05 05:41:19;;;;;;;25.80;8.93;;;;;;;9.09;100.00;93364.34;5074866;28;20202;-76
2021/10/05 05:43:45;;;;;;;28.93;10.00;;;;;;;9.02;100.00;93353.94;5074800;28;20231;-76
2021/10/05 05:46:12;;;;;;;22.67;8.30;;;;;;;9.07;100.00;93348.91;5074815;28;20248;-76
2021/10/05 05:48:39;;;;;;;23.63;9.37;;;;;;;9.08;100.00;93352.34;5075045;28;20567;-77
2021/10/05 05:51:05;;;;;;;22.60;8.47;;;;;;;9.07;100.00;93350.72;5074915;28;20244;-76
2021/10/05 05:53:31;;;;;;;24.83;9.87;;;;;;;9.12;100.00;93348.31;5074803;28;20252;-76
2021/10/05 05:56:00;;;;;;;26.50;10.57;;;;;;;9.05;100.00;93347.53;5074714;28;20203;-76
2021/10/05 05:58:26;;;;;;;23.73;8.83;;;;;;;9.12;100.00;93343.13;5074646;28;20202;-76
2021/10/05 06:00:53;;;;;;;25.17;9.27;;;;;;;9.02;100.00;93351.31;5074597;28;20568;-76
2021/10/05 06:03:19;;;;;;;22.70;9.57;;;;;;;9.05;100.00;93347.53;5074542;28;20321;-76
2021/10/05 06:05:45;;;;;;;25.00;10.10;;;;;;;9.00;100.00;93349.94;5074720;28;20199;-77
2021/10/05 06:08:12;;;;;;;27.73;9.57;;;;;;;9.09;100.00;93343.50;5074580;28;20206;-76
2021/10/05 06:10:39;;;;;;;29.20;10.07;;;;;;;9.09;100.00;93346.13;5073969;28;20207;-76
2021/10/05 06:13:07;;;;;;;28.43;10.47;;;;;;;9.11;100.00;93343.31;5074217;28;20206;-76
2021/10/05 06:15:34;;;;;;;31.93;10.03;;;;;;;9.13;100.00;93349.16;5074881;28;20199;-77
2021/10/05 06:18:01;;;;;;;32.40;10.20;;;;;;;9.16;100.00;93354.75;5074120;28;20691;-76
2021/10/05 06:20:29;;;;;;;27.63;9.20;;;;;;;9.17;100.00;93353.72;5074404;28;20253;-77
2021/10/05 06:22:56;;;;;;;29.40;9.97;;;;;;;9.20;100.00;93345.50;5073834;28;20242;-77
2021/10/05 06:25:25;;;;;;;27.13;8.73;;;;;;;9.18;100.00;93339.72;5074149;28;20198;-77
2021/10/05 06:27:53;;;;;;;26.67;8.90;;;;;;;9.22;100.00;93340.88;5073644;28;20248;-77
2021/10/05 06:30:21;;;;;;;18.53;7.43;;;;;;;9.26;100.00;93344.72;5073913;28;20703;-76
2021/10/05 06:32:53;;;;;;;22.00;8.17;;;;;;;9.26;100.00;93346.53;5074085;28;20611;-77
2021/10/05 06:35:20;;;;;;;19.17;7.60;;;;;;;9.32;100.00;93343.09;5074138;28;20198;-77
2021/10/05 06:37:48;;;;;;;18.97;7.77;;;;;;;9.39;100.00;93345.69;5073838;28;20286;-77
2021/10/05 06:40:15;;;;;;;21.70;8.13;;;;;;;9.42;100.00;93347.88;5073704;28;20202;-77
2021/10/05 06:42:42;;;;;;;27.13;9.87;;;;;;;9.51;100.00;93341.47;5073860;28;20229;-77
2021/10/05 06:45:09;;;;;;;31.67;11.90;;;;;;;9.67;100.00;93339.41;5073625;28;20438;-76
2021/10/05 06:47:37;;;;;;;33.57;12.23;;;;;;;9.93;100.00;93339.31;5073746;28;20194;-76
2021/10/05 06:50:05;;;;;;;34.27;13.47;;;;;;;10.09;100.00;93334.63;5073632;28;20718;-76
2021/10/05 06:52:31;;;;;;;25.13;11.20;;;;;;;10.33;100.00;93339.13;5073579;28;20209;-77
2021/10/05 06:54:58;;;;;;;22.43;9.53;;;;;;;10.18;100.00;93333.38;5073487;28;20557;-77
2021/10/05 06:57:24;;;;;;;17.10;8.13;;;;;;;10.12;100.00;93336.81;5073532;28;20202;-77
2021/10/05 06:59:51;;;;;;;15.87;7.60;;;;;;;10.16;100.00;93336.19;5073597;28;20628;-77
2021/10/05 07:02:17;;;;;;;15.43;6.80;;;;;;;10.41;100.00;93334.66;5073431;28;20231;-76
2021/10/05 07:04:45;;;;;;;14.73;7.13;;;;;;;10.57;100.00;93331.56;5073487;28;20204;-76
2021/10/05 07:07:11;;;;;;;9.93;5.67;;;;;;;10.58;100.00;93346.22;5073306;28;20203;-77
2021/10/05 07:09:38;;;;;;;9.90;5.70;;;;;;;10.67;100.00;93336.31;5073597;28;20205;-77
2021/10/05 07:12:05;;;;;;;10.17;5.67;;;;;;;10.64;100.00;93334.94;5073395;28;20256;-76
2021/10/05 07:14:31;;;;;;;10.10;5.90;;;;;;;10.68;100.00;93325.66;5073389;28;20202;-76
2021/10/05 07:17:00;;;;;;;59.87;40.00;;;;;;;10.83;100.00;93330.56;5073119;28;20251;-76
2021/10/05 07:19:27;;;;;;;11.70;7.73;;;;;;;10.65;100.00;93336.53;5073168;28;20293;-77
2021/10/05 07:22:00;;;;;;;12.33;7.73;;;;;;;10.73;100.00;93322.41;5072064;28;20731;-78
2021/10/05 07:24:27;;;;;;;11.40;6.50;;;;;;;10.69;100.00;93319.44;5073270;28;20585;-76
2021/10/05 07:26:53;;;;;;;10.43;6.30;;;;;;;10.60;100.00;93312.88;5073158;28;20256;-76
2021/10/05 07:29:20;;;;;;;11.17;7.07;;;;;;;11.08;100.00;93314.09;5073139;28;20249;-77
2021/10/05 07:31:46;;;;;;;10.10;6.10;;;;;;;11.08;100.00;93306.25;5073057;28;20244;-76
2021/10/05 07:34:13;;;;;;;10.47;5.80;;;;;;;11.24;100.00;93302.28;5072837;28;20210;-77
2021/10/05 07:36:41;;;;;;;9.77;5.68;;;;;;;11.34;100.00;93300.00;5072930;28;20677;-77
2021/10/05 07:39:09;;;;;;;7.60;5.28;;;;;;;11.58;100.00;93300.94;5073075;28;20203;-77
2021/10/05 07:41:35;;;;;;;7.85;4.97;;;;;;;11.51;100.00;93308.06;5072823;28;20203;-77
2021/10/05 07:44:04;;;;;;;7.95;5.05;;;;;;;11.28;100.00;93300.84;5072744;28;20226;-77
2021/10/05 07:46:31;;;;;;;8.25;5.18;;;;;;;11.06;100.00;93292.63;5072946;28;20202;-77
2021/10/05 07:48:58;;;;;;;8.50;5.60;;;;;;;11.34;100.00;93292.16;5072542;28;20199;-77
2021/10/05 07:51:25;;;;;;;7.47;4.68;;;;;;;11.64;100.00;93292.22;5072999;28;20199;-77
2021/10/05 07:53:52;;;;;;;5.53;4.10;;;;;;;11.85;100.00;93298.81;5072952;28;20206;-77
2021/10/05 07:56:19;;;;;;;6.25;4.20;;;;;;;12.13;100.00;93292.25;5072656;28;20676;-77
2021/10/05 07:58:48;;;;;;;5.05;3.22;;;;;;;12.29;100.00;93303.09;5072833;28;20207;-77
2021/10/05 08:01:14;;;;;;;5.53;3.38;;;;;;;12.12;100.00;93308.97;5072691;28;20203;-77
2021/10/05 08:03:41;;;;;;;5.10;3.17;;;;;;;12.38;100.00;93309.63;5072604;28;20313;-77
2021/10/05 08:06:08;;;;;;;4.78;3.35;;;;;;;11.99;100.00;93307.34;5072627;28;20203;-77
2021/10/05 08:08:34;;;;;;;4.75;3.35;;;;;;;11.95;100.00;93318.44;5072859;28;20205;-77
2021/10/05 08:11:01;;;;;;;4.68;3.15;;;;;;;12.24;100.00;93321.31;5072713;28;20206;-77
2021/10/05 08:13:28;;;;;;;6.10;3.03;;;;;;;12.49;100.00;93318.53;5062356;28;20245;-76
2021/10/05 08:15:55;;;;;;;4.13;2.80;;;;;;;12.35;100.00;93323.16;5051703;28;20211;-77
2021/10/05 08:18:22;;;;;;;3.28;2.53;;;;;;;11.88;100.00;93315.88;5052085;28;20662;-77
2021/10/05 08:20:49;;;;;;;3.72;2.63;;;;;;;11.97;100.00;93319.84;5057572;28;20442;-77
2021/10/05 08:23:16;;;;;;;3.50;1.90;;;;;;;12.36;100.00;93317.72;5071770;28;20229;-76
2021/10/05 08:25:48;;;;;;;2.78;1.85;;;;;;;12.42;100.00;93316.00;5072558;28;20203;-77
2021/10/05 08:28:16;;;;;;;2.05;1.67;;;;;;;12.43;100.00;93311.59;5072477;28;20202;-76
2021/10/05 08:30:47;;;;;;;2.10;1.50;;;;;;;12.54;100.00;93324.72;5072192;28;20615;-77
2021/10/05 08:33:13;;;;;;;5.30;1.10;;;;;;;12.19;100.00;93329.81;5073808;28;20206;-77
2021/10/05 08:35:40;;;;;;;1.45;1.10;;;;;;;11.97;100.00;93322.47;5076131;28;20581;-77
2021/10/05 08:38:06;;;;;;;0.85;0.80;;;;;;;12.07;100.00;93332.38;5076156;28;20604;-76
2021/10/05 08:40:34;;;;;;;1.75;1.20;;;;;;;12.08;100.00;93327.97;5076108;28;20199;-77
2021/10/05 08:43:00;;;;;;;1.50;1.40;;;;;;;12.18;100.00;93325.63;5075716;28;20218;-77
2021/10/05 08:45:28;;;;;;;1.38;1.27;;;;;;;12.35;100.00;93331.81;5076186;28;20201;-77
2021/10/05 08:47:56;;;;;;;2.22;1.58;;;;;;;12.12;100.00;93329.91;5075925;28;20649;-76
2021/10/05 08:50:22;;;;;;;3.40;1.90;;;;;;;12.03;100.00;93324.16;5075779;28;20649;-76
2021/10/05 08:52:49;;;;;;;2.63;1.75;;;;;;;11.75;100.00;93324.69;5075906;28;20206;-76
2021/10/05 08:55:15;;;;;;;2.67;2.00;;;;;;;11.91;100.00;93332.97;5075834;28;20198;-77
2021/10/05 08:57:42;;;;;;;2.50;2.00;;;;;;;11.83;100.00;93329.63;5075529;28;20199;-77
2021/10/05 09:00:10;;;;;;;3.15;2.08;;;;;;;11.76;100.00;93331.50;5075901;28;20289;-77
2021/10/05 09:02:45;;;;;;;2.60;1.93;;;;;;;11.18;100.00;93330.09;5075675;28;20195;-76
2021/10/05 09:05:14;;;;;;;2.35;1.55;;;;;;;11.42;100.00;93325.84;5075722;28;20206;-76
2021/10/05 09:07:46;;;;;;;3.55;2.20;;;;;;;11.60;100.00;93335.50;5074801;28;20453;-76
2021/10/05 09:10:14;;;;;;;3.72;2.40;;;;;;;11.74;100.00;93324.88;5075337;28;20557;-77
2021/10/05 09:12:41;;;;;;;3.90;2.50;;;;;;;12.10;100.00;93329.31;5075534;28;20195;-77
2021/10/05 09:15:10;;;;;;;2.87;2.00;;;;;;;12.08;100.00;93333.97;5075508;28;20199;-77
2021/10/05 09:17:36;;;;;;;3.53;2.42;;;;;;;11.85;100.00;93330.19;5075416;28;20207;-77
2021/10/05 09:20:16;;;;;;;4.10;2.80;;;;;;;11.73;100.00;93339.00;5074357;28;20824;-76
2021/10/05 09:22:46;;;;;;;6.22;2.42;;;;;;;11.84;100.00;93331.22;5074880;28;20241;-77
2021/10/05 09:25:13;;;;;;;3.63;2.35;;;;;;;12.06;100.00;93333.41;5058219;28;20610;-77
2021/10/05 09:27:49;;;;;;;3.47;2.25;;;;;;;11.51;100.00;93333.38;5055102;28;20651;-76
2021/10/05 09:30:20;;;;;;;6.30;2.55;;;;;;;11.65;100.00;93335.63;5055125;28;20588;-77
2021/10/05 09:32:59;;;;;;;5.70;2.00;;;;;;;11.50;100.00;93331.81;5055125;28;20203;-76
2021/10/05 09:35:25;;;;;;;3.00;2.20;;;;;;;11.77;100.00;93327.06;5070821;28;20597;-76
2021/10/05 09:37:54;;;;;;;3.25;2.22;;;;;;;11.76;100.00;93318.44;5075001;28;20213;-77
2021/10/05 09:40:20;;;;;;;4.00;2.20;;;;;;;11.85;100.00;93319.72;5075017;28;20199;-77
2021/10/05 09:42:50;;;;;;;6.13;2.03;;;;;;;12.49;100.00;93314.13;5074892;28;20205;-77
2021/10/05 09:45:18;;;;;;;4.35;1.67;;;;;;;12.81;100.00;93295.50;5074191;28;20218;-77
2021/10/05 09:47:47;;;;;;;1.90;1.33;;;;;;;13.45;100.00;93289.63;5074646;28;20256;-77
2021/10/05 09:50:15;;;;;;;2.25;1.60;;;;;;;13.84;100.00;93292.53;5074891;28;20199;-77
2021/10/05 09:52:46;;;;;;;1.90;1.55;;;;;;;14.30;100.00;93290.75;5074824;28;20199;-76
2021/10/05 09:55:15;;;;;;;1.65;1.50;;;;;;;13.81;100.00;93292.97;5073889;28;20199;-77
2021/10/05 09:57:42;;;;;;;2.13;1.50;;;;;;;13.40;100.00;93292.13;5074644;28;20228;-77
2021/10/05 10:00:10;;;;;;;3.80;1.63;;;;;;;13.44;100.00;93288.81;5074466;28;20198;-77
2021/10/05 10:02:38;;;;;;;1.85;1.35;;;;;;;13.79;100.00;93297.63;5074730;28;20278;-77
2021/10/05 10:05:07;;;;;;;2.13;1.55;;;;;;;13.65;100.00;93289.25;5074116;28;20639;-77
2021/10/05 10:07:37;;;;;;;1.83;1.38;;;;;;;13.08;100.00;93305.56;5073459;28;20203;-78
2021/10/05 10:10:07;;;;;;;3.83;1.67;;;;;;;13.16;100.00;93297.34;5074422;28;20230;-77
2021/10/05 10:12:35;;;;;;;2.67;1.25;;;;;;;13.10;100.00;93293.81;5074195;28;20210;-77
2021/10/05 10:15:02;;;;;;;1.92;1.35;;;;;;;13.44;100.00;93288.81;5074160;28;20218;-77
2021/10/05 10:17:29;;;;;;;1.33;1.08;;;;;;;13.49;100.00;93296.00;5074406;28;20252;-77
2021/10/05 10:19:56;;;;;;;1.42;1.10;;;;;;;13.22;100.00;93298.25;5074261;28;20205;-77
2021/10/05 10:22:22;;;;;;;2.70;1.05;;;;;;;13.30;100.00;93292.66;5073999;28;20643;-77
2021/10/05 10:24:52;;;;;;;1.65;0.98;;;;;;;13.18;100.00;93289.28;5073981;28;20226;-77
2021/10/05 10:27:19;;;;;;;1.40;1.10;;;;;;;13.46;100.00;93276.28;5073824;28;20202;-77
2021/10/05 10:29:48;;;;;;;0.90;0.88;;;;;;;14.13;100.00;93280.19;5073343;28;20665;-77
2021/10/05 10:32:18;;;;;;;1.50;1.05;;;;;;;14.36;100.00;93273.25;5074011;28;20260;-77
2021/10/05 10:34:46;;;;;;;1.05;0.80;;;;;;;14.58;100.00;93276.00;5074148;28;20206;-77
2021/10/05 10:37:15;;;;;;;0.70;0.70;;;;;;;14.95;100.00;93275.56;5073784;28;20207;-77
2021/10/05 10:39:44;;;;;;;1.45;0.90;;;;;;;14.83;100.00;93282.75;5073657;28;20550;-77
2021/10/05 10:42:11;;;;;;;1.10;0.88;;;;;;;14.95;100.00;93286.06;5073909;28;20195;-77
2021/10/05 10:44:39;;;;;;;1.00;0.90;;;;;;;14.80;100.00;93279.56;5073535;28;20230;-77
2021/10/05 10:47:11;;;;;;;0.60;0.60;;;;;;;14.06;100.00;93276.94;5073686;28;20199;-76
2021/10/05 10:49:38;;;;;;;2.75;0.80;;;;;;;13.99;100.00;93284.13;5073704;28;20199;-77
2021/10/05 10:52:05;;;;;;;1.35;0.70;;;;;;;14.11;100.00;93277.03;5073492;28;20198;-77
2021/10/05 10:54:32;;;;;;;1.42;0.80;;;;;;;13.96;100.00;93274.13;5072705;28;20434;-76
2021/10/05 10:57:01;;;;;;;1.10;0.70;;;;;;;13.71;100.00;93288.31;5073604;28;20201;-76
2021/10/05 10:59:33;;;;;;;0.85;0.80;;;;;;;13.53;100.00;93291.88;5073578;28;20230;-77
2021/10/05 11:02:02;;;;;;;1.00;0.63;;;;;;;12.94;100.00;93287.44;5073356;28;20202;-77
2021/10/05 11:04:32;;;;;;;1.00;0.90;;;;;;;12.94;100.00;93284.81;5073279;28;20233;-77
2021/10/05 11:07:01;;;;;;;0.80;0.80;;;;;;;13.13;100.00;93288.13;5073122;28;20259;-76
2021/10/05 11:09:32;;;;;;;0.75;0.70;;;;;;;13.49;100.00;93290.75;5073404;28;20203;-76
2021/10/05 11:11:59;;;;;;;1.38;0.63;;;;;;;13.81;100.00;93287.72;5073398;28;20195;-76
2021/10/05 11:14:28;;;;;;;0.75;0.50;;;;;;;13.87;100.00;93281.53;5073142;28;20262;-77
2021/10/05 11:16:57;;;;;;;0.88;0.65;;;;;;;14.30;100.00;93284.69;5073151;28;20222;-77
2021/10/05 11:19:30;;;;;;;1.67;0.88;;;;;;;14.23;100.00;93285.63;5072905;28;20206;-77
2021/10/05 11:21:57;;;;;;;1.60;1.17;;;;;;;13.99;100.00;93284.13;5072998;28;20261;-76
2021/10/05 11:24:34;;;;;;;0.43;0.30;;;;;;;14.34;100.00;93283.19;5073018;28;20325;-77